createdAt,value
2022-10-05T00:01:34.716Z,100069.00
2022-10-05T00:04:22.257Z,100024.56
2022-10-05T00:07:18.973Z,100062.47
2022-10-05T00:09:54.922Z,100062.63
2022-10-05T00:12:24.743Z,100013.91
2022-10-05T00:14:58.102Z,100061.16
2022-10-05T00:17:29.386Z,100069.84
2022-10-05T00:19:58.007Z,100064.31
2022-10-05T00:22:34.052Z,100026.81
2022-10-05T00:25:11.280Z,100061.78
2022-10-05T00:27:40.370Z,100008.31
2022-10-05T00:30:21.185Z,100023.41
2022-10-05T00:32:50.821Z,100058.69
2022-10-05T00:35:20.333Z,100023.97
2022-10-05T00:37:54.382Z,100012.44
2022-10-05T00:41:14.595Z,100067.41
2022-10-05T00:44:16.613Z,100058.41
2022-10-05T00:47:13.026Z,100079.78
2022-10-05T00:50:14.279Z,100091.63
2022-10-05T00:53:01.580Z,100090.16
2022-10-05T00:55:38.243Z,100094.19
2022-10-05T00:58:30.743Z,100086.50
2022-10-05T01:00:58.728Z,100087.78
2022-10-05T01:04:08.944Z,100091.88
2022-10-05T01:07:12.823Z,100095.81
2022-10-05T01:10:01.270Z,100085.66
2022-10-05T01:12:51.149Z,100084.38
2022-10-05T01:16:11.274Z,100097.28
2022-10-05T01:19:14.907Z,100066.72
2022-10-05T01:22:14.176Z,100084.06
2022-10-05T01:24:54.018Z,100095.91
2022-10-05T01:27:41.858Z,100100.06
2022-10-05T01:30:15.933Z,100096.16
2022-10-05T01:32:48.792Z,100093.53
2022-10-05T01:35:40.962Z,100101.97
2022-10-05T01:38:40.194Z,100104.31
2022-10-05T01:41:24.505Z,100100.31
2022-10-05T01:44:13.068Z,100077.25
2022-10-05T01:47:28.830Z,100094.16
2022-10-05T01:50:41.312Z,100096.28
2022-10-05T01:53:45.527Z,100093.53
2022-10-05T01:56:38.870Z,100103.13
2022-10-05T01:59:31.755Z,100092.44
2022-10-05T02:02:09.477Z,100083.47
2022-10-05T02:05:01.798Z,100084.94
2022-10-05T02:07:49.638Z,100085.25
2022-10-05T02:10:19.421Z,100075.00
2022-10-05T02:12:50.175Z,100086.75
2022-10-05T02:15:26.373Z,100091.19
2022-10-05T02:18:08.174Z,100046.50
2022-10-05T02:20:37.884Z,100051.66
2022-10-05T02:23:19.724Z,100099.88
2022-10-05T02:25:49.730Z,100104.84
2022-10-05T02:28:37.813Z,100119.41
2022-10-05T02:31:24.429Z,100105.13
2022-10-05T02:33:54.769Z,100058.53
2022-10-05T02:36:37.030Z,100100.38
2022-10-05T02:40:06.408Z,100104.50
2022-10-05T02:42:56.223Z,100100.16
2022-10-05T02:45:54.119Z,100099.22
2022-10-05T02:48:50.154Z,100078.25
2022-10-05T02:51:42.698Z,100075.09
2022-10-05T02:54:41.551Z,100054.59
2022-10-05T02:57:31.433Z,100080.06
2022-10-05T03:00:20.071Z,100089.69
2022-10-05T03:02:55.549Z,100093.94
2022-10-05T03:05:38.305Z,100051.88
2022-10-05T03:08:31.333Z,100050.81
2022-10-05T03:11:36.956Z,100099.22
2022-10-05T03:14:31.544Z,100101.13
2022-10-05T03:17:19.881Z,100095.59
2022-10-05T03:20:25.977Z,100092.03
2022-10-05T03:23:02.222Z,100083.97
2022-10-05T03:26:18.084Z,100088.19
2022-10-05T03:29:26.823Z,100074.66
2022-10-05T03:32:20.092Z,100079.56
2022-10-05T03:35:12.135Z,100070.03
2022-10-05T03:38:07.548Z,100055.03
2022-10-05T03:41:09.412Z,100101.13
2022-10-05T03:44:27.534Z,100106.09
2022-10-05T03:47:26.281Z,100114.13
2022-10-05T03:50:51.321Z,100113.59
2022-10-05T03:53:25.611Z,100108.59
2022-10-05T03:56:05.177Z,100073.00
2022-10-05T03:58:46.473Z,100100.88
2022-10-05T04:01:29.817Z,100089.16
2022-10-05T04:04:01.988Z,100054.66
2022-10-05T04:06:45.619Z,100084.03
2022-10-05T04:09:43.261Z,100025.00
2022-10-05T04:12:32.392Z,100081.31
2022-10-05T04:15:19.486Z,100091.78
2022-10-05T04:17:57.518Z,100088.63
2022-10-05T04:20:46.854Z,100101.41
2022-10-05T04:23:40.577Z,100104.91
2022-10-05T04:26:31.243Z,100105.13
2022-10-05T04:29:24.447Z,100103.00
2022-10-05T04:32:30.221Z,100114.91
2022-10-05T04:35:38.271Z,100120.66
2022-10-05T04:38:39.128Z,100105.66
2022-10-05T04:41:25.458Z,100113.66
2022-10-05T04:44:09.232Z,100105.50
2022-10-05T04:47:08.043Z,100099.38
2022-10-05T04:50:16.421Z,100096.50
2022-10-05T04:53:31.537Z,100083.84
2022-10-05T04:56:38.975Z,100129.34
2022-10-05T04:59:39.095Z,100134.16
2022-10-05T05:02:40.406Z,100107.53
2022-10-05T05:06:05.091Z,100125.00
2022-10-05T05:08:42.268Z,100126.72
2022-10-05T05:11:27.177Z,100118.78
2022-10-05T05:14:16.115Z,100123.84
2022-10-05T05:16:54.973Z,100118.53
2022-10-05T05:19:58.764Z,100113.03
2022-10-05T05:22:39.746Z,100117.53
2022-10-05T05:25:40.292Z,100095.84
2022-10-05T05:28:42.582Z,100109.31
2022-10-05T05:31:34.658Z,100100.94
2022-10-05T05:34:17.467Z,100112.97
2022-10-05T05:37:04.694Z,100120.28
2022-10-05T05:40:12.976Z,100133.34
2022-10-05T05:43:13.021Z,100126.41
2022-10-05T05:46:00.611Z,100087.47
2022-10-05T05:48:40.062Z,100115.59
2022-10-05T05:51:27.499Z,100112.50
2022-10-05T05:54:16.510Z,100124.25
2022-10-05T05:57:11.490Z,100117.59
2022-10-05T06:00:38.948Z,100118.31
2022-10-05T06:03:43.369Z,100132.03
2022-10-05T06:06:17.537Z,100130.34
2022-10-05T06:08:58.458Z,100107.03
2022-10-05T06:11:54.315Z,100110.00
2022-10-05T06:14:46.021Z,100120.50
2022-10-05T06:17:38.129Z,100129.72
2022-10-05T06:20:33.526Z,100129.34
2022-10-05T06:23:12.610Z,100101.16
2022-10-05T06:26:12.147Z,100133.59
2022-10-05T06:28:43.242Z,100110.00
2022-10-05T06:31:26.727Z,100151.44
2022-10-05T06:34:19.015Z,100137.66
2022-10-05T06:36:59.631Z,100129.22
2022-10-05T06:40:16.332Z,100120.72
2022-10-05T06:43:17.030Z,100138.31
2022-10-05T06:46:20.000Z,100136.25
2022-10-05T06:49:07.518Z,100143.38
2022-10-05T06:52:20.039Z,100141.53
2022-10-05T06:55:15.874Z,100134.00
2022-10-05T06:58:04.313Z,100140.25
2022-10-05T07:01:00.915Z,100104.28
2022-10-05T07:03:55.947Z,100133.44
2022-10-05T07:06:32.245Z,100133.88
2022-10-05T07:09:33.064Z,100120.31
2022-10-05T07:12:20.065Z,100137.38
2022-10-05T07:15:22.401Z,100132.22
2022-10-05T07:18:52.711Z,100127.97
2022-10-05T07:22:09.323Z,100124.25
2022-10-05T07:24:52.753Z,100119.09
2022-10-05T07:27:32.334Z,100087.06
2022-10-05T07:30:05.862Z,100124.13
2022-10-05T07:33:05.485Z,100115.72
2022-10-05T07:36:19.305Z,100121.72
2022-10-05T07:39:05.655Z,100116.22
2022-10-05T07:41:47.733Z,100115.88
2022-10-05T07:44:29.637Z,100104.50
2022-10-05T07:47:32.272Z,100102.69
2022-10-05T07:50:25.554Z,100064.84
2022-10-05T07:53:37.726Z,100125.19
2022-10-05T07:56:54.219Z,100104.03
2022-10-05T08:00:03.943Z,100119.59
2022-10-05T08:02:59.516Z,100129.44
2022-10-05T08:05:40.873Z,100130.13
2022-10-05T08:08:23.508Z,100119.16
2022-10-05T08:11:15.792Z,100124.94
2022-10-05T08:14:02.275Z,100112.66
2022-10-05T08:16:38.089Z,100133.19
2022-10-05T08:19:34.937Z,100115.41
2022-10-05T08:22:14.151Z,100127.44
2022-10-05T08:24:56.033Z,100129.44
2022-10-05T08:27:48.312Z,100113.53
2022-10-05T08:30:17.591Z,100080.94
2022-10-05T08:33:06.940Z,100104.97
2022-10-05T08:35:47.309Z,100103.28
2022-10-05T08:38:40.747Z,100007.38
2022-10-05T08:41:41.946Z,100109.25
2022-10-05T08:44:50.421Z,100107.66
2022-10-05T08:47:37.440Z,100108.81
2022-10-05T08:51:03.832Z,100106.41
2022-10-05T08:53:55.518Z,100113.50
2022-10-05T08:56:35.771Z,100116.56
2022-10-05T08:59:18.413Z,100083.00
2022-10-05T09:02:42.929Z,100102.53
2022-10-05T09:05:51.171Z,100122.03
2022-10-05T09:08:40.191Z,100113.69
2022-10-05T09:11:40.857Z,100065.09
2022-10-05T09:14:52.598Z,100095.56
2022-10-05T09:17:29.236Z,100090.44
2022-10-05T09:20:30.553Z,100073.41
2022-10-05T09:23:15.941Z,100067.38
2022-10-05T09:26:05.459Z,100077.16
2022-10-05T09:29:12.146Z,100077.06
2022-10-05T09:32:30.431Z,100070.00
2022-10-05T09:36:09.505Z,100064.00
2022-10-05T09:39:20.632Z,100061.03
2022-10-05T09:42:36.012Z,100057.34
2022-10-05T09:45:58.060Z,100056.69
2022-10-05T09:49:28.816Z,100047.66
2022-10-05T09:52:46.061Z,100047.91
2022-10-05T09:55:27.007Z,100064.84
2022-10-05T09:58:35.254Z,100065.91
2022-10-05T10:01:40.735Z,100048.00
2022-10-05T10:04:24.788Z,100063.59
2022-10-05T10:07:25.426Z,100044.53
2022-10-05T10:10:34.033Z,100053.59
2022-10-05T10:13:56.036Z,100063.84
2022-10-05T10:16:45.620Z,100046.81
2022-10-05T10:19:38.211Z,100049.69
2022-10-05T10:22:50.272Z,100054.34
2022-10-05T10:25:55.014Z,100049.47
2022-10-05T10:29:10.025Z,100002.84
2022-10-05T10:31:50.351Z,100037.44
2022-10-05T10:34:43.989Z,100041.19
2022-10-05T10:37:20.577Z,100034.13
2022-10-05T10:40:20.322Z,100041.50
2022-10-05T10:43:18.369Z,100043.38
2022-10-05T10:46:35.459Z,100026.91
2022-10-05T10:50:05.272Z,100024.06
2022-10-05T10:53:00.954Z,100029.91
2022-10-05T10:56:01.069Z,100029.06
2022-10-05T10:59:06.316Z,100027.59
2022-10-05T11:02:22.558Z,100031.13
2022-10-05T11:05:33.308Z,99998.56
2022-10-05T11:08:55.585Z,100019.88
2022-10-05T11:11:46.586Z,100008.94
2022-10-05T11:14:40.530Z,100004.94
2022-10-05T11:17:58.334Z,100005.25
2022-10-05T11:21:00.917Z,99992.88
2022-10-05T11:24:15.405Z,100001.72
2022-10-05T11:27:08.547Z,99968.88
2022-10-05T11:30:35.300Z,99978.25
2022-10-05T11:33:06.531Z,99986.44
2022-10-05T11:36:19.616Z,99991.00
